Epic Capri — 9HA2845 — position and weather

sailwx.info

Track history (hours):
 
Tides and Currents Weather Stations Pressure Air Temp Water Temp Dewpoint Dewpoint Depression Visibility Wind Speed Wind Dir Waves Ship Positions

Epic Capri

Last reported at 2016-Feb-13 04:31 UTC. Time now 2016-Feb-13 21:18 UTC.
Position N 36°35' W 010°55'.

Length 99 m; draft 5.3 m.

Type: Tanker. MMSI: 256325000.

Date/timePositionNaut miles runAvg speedWind from/ knotsBaromVisibWave heightAir tempDewpointWater temp
2016-Feb-13 04:31N 36°35' W 010°55'9 9.6
2016-Feb-13 03:34N 36°40' W 010°46'12 9.9
2016-Feb-13 02:23N 36°48' W 010°35'8 9.4
2016-Feb-13 01:32N 36°53' W 010°28'9 8.6
2016-Feb-13 00:32N 36°58' W 010°19'9 8.8
2016-Feb-12 23:32N 37°04' W 010°11'9 9.2
2016-Feb-12 22:32N 37°10' W 010°02'10 9.7
2016-Feb-12 21:32N 37°16' W 009°52'9 8.9
2016-Feb-12 20:32N 37°22' W 009°44'10 9.5
2016-Feb-12 19:32N 37°28' W 009°35'10 9.6
2016-Feb-12 18:32N 37°34' W 009°25'12 8.9
2016-Feb-12 17:13N 37°41' W 009°14'6 9.4
2016-Feb-12 16:33N 37°45' W 009°08'10 9.6
2016-Feb-12 15:33N 37°51' W 008°58'7 7.1
2016-Feb-12 14:33N 37°57' W 008°53'0 0.1
2016-Feb-12 13:32N 37°57' W 008°53'0 0.0
2016-Feb-12 12:32N 37°57' W 008°53'0 0.0
2016-Feb-12 11:32N 37°57' W 008°53'0 0.0
2016-Feb-12 10:32N 37°57' W 008°53'0 0.0
2016-Feb-12 09:32N 37°57' W 008°53'0 0.0
2016-Feb-12 08:32N 37°57' W 008°53'0 0.0
2016-Feb-12 07:32N 37°57' W 008°53'0 0.0
2016-Feb-12 06:32N 37°57' W 008°53'0 0.0
2016-Feb-12 05:32N 37°57' W 008°53'0 0.0
2016-Feb-12 04:32N 37°57' W 008°53'0 0.0
2016-Feb-12 03:32N 37°57' W 008°53'0 0.0
2016-Feb-12 02:32N 37°57' W 008°53'0 0.0
2016-Feb-12 01:32N 37°57' W 008°53'0 0.0
2016-Feb-12 00:32N 37°57' W 008°53'0 0.0
2016-Feb-11 23:32N 37°57' W 008°53'0 0.0
2016-Feb-11 22:32N 37°57' W 008°53'0 0.0
2016-Feb-11 21:32N 37°57' W 008°53'0 0.0
2016-Feb-11 20:32N 37°57' W 008°53'0 0.0
2016-Feb-11 19:32N 37°57' W 008°53'0 0.0
2016-Feb-11 18:32N 37°57' W 008°53'0 0.0
2016-Feb-11 17:32N 37°57' W 008°53'0 0.0
2016-Feb-11 16:32N 37°57' W 008°53'0 0.0
2016-Feb-11 15:32N 37°57' W 008°53'0 0.0
2016-Feb-11 14:32N 37°57' W 008°53'0 0.0
2016-Feb-11 13:32N 37°57' W 008°53'0 0.0
2016-Feb-11 12:32N 37°57' W 008°53'0 0.0
2016-Feb-11 11:32N 37°57' W 008°53'2 2.3
2016-Feb-11 10:32N 37°55' W 008°52'0 0.0
2016-Feb-11 09:32N 37°55' W 008°52'0 0.0
2016-Feb-11 08:32N 37°55' W 008°52'0 0.0
2016-Feb-11 07:32N 37°55' W 008°52'0 0.0
2016-Feb-11 06:32N 37°55' W 008°52'0 0.0
2016-Feb-11 05:32N 37°55' W 008°52'0 0.0
2016-Feb-11 04:32N 37°55' W 008°52'0 0.0
2016-Feb-11 03:32N 37°55' W 008°52'0 0.0
2016-Feb-11 02:32N 37°55' W 008°52'0 0.0
2016-Feb-11 01:32N 37°55' W 008°52'0 0.0
2016-Feb-11 00:32N 37°55' W 008°52'0 0.0
2016-Feb-10 23:32N 37°55' W 008°52'0 0.0
2016-Feb-10 22:32N 37°55' W 008°52'0 0.0
2016-Feb-10 21:32N 37°55' W 008°52'0 0.0
2016-Feb-10 20:29N 37°55' W 008°52'0 0.0
2016-Feb-10 19:32N 37°55' W 008°52'1 1.3
2016-Feb-10 18:33N 37°55' W 008°54'1111.0
2016-Feb-10 17:32N 38°02' W 009°04'1211.7
2016-Feb-10 16:33N 38°08' W 009°17'1412.8
2016-Feb-10 15:29N 38°14' W 009°32'1212.0
2016-Feb-10 14:29N 38°19' W 009°46'1010.5
2016-Feb-10 13:33N 38°23' W 009°58'10 9.7
2016-Feb-10 12:33N 38°29' W 010°08'1110.7
2016-Feb-10 11:33N 38°39' W 010°11'1210.4
2016-Feb-10 10:21N 38°52' W 010°12'8 9.6
2016-Feb-10 09:32N 38°59' W 010°09'1010.1
2016-Feb-10 08:33N 39°09' W 010°06'9 8.9
2016-Feb-10 07:32N 39°17' W 010°00'9 9.1
2016-Feb-10 06:29N 39°25' W 009°55'9 9.0
2016-Feb-10 05:32N 39°33' W 009°50'9 9.4
2016-Feb-10 04:32N 39°41' W 009°44'12 9.8
2016-Feb-10 03:20N 39°51' W 009°37'8 9.6
2016-Feb-10 02:32N 39°58' W 009°32'9 9.0
2016-Feb-10 01:30N 40°06' W 009°26'9 9.4
2016-Feb-10 00:32N 40°15' W 009°21'10 9.6
2016-Feb-09 23:32N 40°23' W 009°15'9 9.2
2016-Feb-09 22:33N 40°31' W 009°09'12 9.3
2016-Feb-09 21:14N 40°42' W 009°02'5 7.4
2016-Feb-09 20:33N 40°46' W 008°59'9 8.8
2016-Feb-09 19:34N 40°54' W 008°54'8 8.1
2016-Feb-09 18:33N 41°01' W 008°49'8 7.6
2016-Feb-09 17:33N 41°08' W 008°43'3 3.4
2016-Feb-09 16:32N 41°11' W 008°43'0 0.0
2016-Feb-09 15:32N 41°11' W 008°43'0 0.0
2016-Feb-09 14:32N 41°11' W 008°43'0 0.0
2016-Feb-09 13:32N 41°11' W 008°43'0 0.0
2016-Feb-09 12:32N 41°11' W 008°43'0 0.0
2016-Feb-09 11:32N 41°11' W 008°43'0 0.0
2016-Feb-09 10:32N 41°11' W 008°43'0 0.0
2016-Feb-09 09:32N 41°11' W 008°43'0 0.0
2016-Feb-09 08:33N 41°11' W 008°43'0 0.0
2016-Feb-09 07:33N 41°11' W 008°43'0 0.0
2016-Feb-09 06:32N 41°11' W 008°43'0 0.0
2016-Feb-09 05:32N 41°11' W 008°43'0 0.0
2016-Feb-09 04:33N 41°11' W 008°43'0 0.0
2016-Feb-09 03:33N 41°11' W 008°43'0 0.0
2016-Feb-09 02:33N 41°11' W 008°43'0 0.0
2016-Feb-09 01:32N 41°11' W 008°43'0 0.0
2016-Feb-09 00:33N 41°11' W 008°43'0 0.0
2016-Feb-08 23:33N 41°11' W 008°43'0 0.0
2016-Feb-08 22:32N 41°11' W 008°43'0 0.0
2016-Feb-08 21:33N 41°11' W 008°43'0 0.0
2016-Feb-08 20:32N 41°11' W 008°43'0 0.0
2016-Feb-08 19:32N 41°11' W 008°43'0 0.0
2016-Feb-08 18:33N 41°11' W 008°43'0 0.0
2016-Feb-08 17:33N 41°11' W 008°43'0 0.0
2016-Feb-08 16:32N 41°11' W 008°43'0 0.0
2016-Feb-08 15:32N 41°11' W 008°43'0 0.0
2016-Feb-08 14:33N 41°11' W 008°43'0 0.0
2016-Feb-08 13:33N 41°11' W 008°43'0 0.0
2016-Feb-08 12:32N 41°11' W 008°43'0 0.0
2016-Feb-08 11:33N 41°11' W 008°43'0 0.0
2016-Feb-08 10:33N 41°11' W 008°43'0 0.4
2016-Feb-08 09:33N 41°11' W 008°42'3 2.7
2016-Feb-08 08:33N 41°10' W 008°46'1 1.3
2016-Feb-08 07:33N 41°09' W 008°48'5 4.8
2016-Feb-08 06:33N 41°05' W 008°48'1010.6
2016-Feb-08 05:34N 40°55' W 008°54'1010.4
2016-Feb-08 04:33N 40°46' W 009°00'1110.7
2016-Feb-08 03:29N 40°36' W 009°07'9 9.7
2016-Feb-08 02:32N 40°27' W 009°11'1110.7
2016-Feb-08 01:32N 40°17' W 009°17'1010.4
2016-Feb-08 00:32N 40°08' W 009°22'1110.6
2016-Feb-07 23:32N 39°58' W 009°29'1110.0
2016-Feb-07 22:29N 39°49' W 009°34'9 9.9
2016-Feb-07 21:33N 39°40' W 009°40'1010.3
2016-Feb-07 20:32N 39°31' W 009°45'11 9.9
2016-Feb-07 19:26N 39°21' W 009°51'8 8.9
2016-Feb-07 18:33N 39°14' W 009°56'8 8.5
2016-Feb-07 17:34N 39°05' W 009°57'8 8.2
2016-Feb-07 16:33N 38°57' W 009°57'7 7.0
2016-Feb-07 15:33N 38°50' W 009°57'5 5.5
2016-Feb-07 14:32N 38°45' W 009°56'6 4.7
2016-Feb-07 13:20N 38°39' W 009°54'4 5.1
2016-Feb-07 12:32N 38°35' W 009°52'5 4.8
2016-Feb-07 11:32N 38°31' W 009°50'5 5.4
2016-Feb-07 10:33N 38°27' W 009°46'5 5.0
2016-Feb-07 09:32N 38°22' W 009°43'5 4.8
2016-Feb-07 08:32N 38°18' W 009°40'5 3.8
2016-Feb-07 07:11N 38°14' W 009°36'2 3.5
2016-Feb-07 06:32N 38°13' W 009°33'4 3.5
2016-Feb-07 05:30N 38°12' W 009°29'3 3.5
2016-Feb-07 04:33N 38°11' W 009°25'4 3.6
2016-Feb-07 03:33N 38°10' W 009°20'3 3.3
2016-Feb-07 02:33N 38°09' W 009°16'3 3.3
2016-Feb-07 01:33N 38°07' W 009°13'4 3.9
2016-Feb-07 00:33N 38°05' W 009°08'6 6.2
2016-Feb-06 23:33N 38°01' W 009°02'7 6.7
2016-Feb-06 22:33N 37°57' W 008°56'2 2.1
2016-Feb-06 21:33N 37°57' W 008°53'0 0.0
2016-Feb-06 20:32N 37°57' W 008°53'0 0.0
2016-Feb-06 19:32N 37°57' W 008°53'0 0.0
2016-Feb-06 18:32N 37°57' W 008°53'0 0.0
2016-Feb-06 17:32N 37°57' W 008°53'0 0.0
2016-Feb-06 16:32N 37°57' W 008°53'0 0.0
2016-Feb-06 15:32N 37°57' W 008°53'0 0.0
2016-Feb-06 14:32N 37°57' W 008°53'0 0.0
2016-Feb-06 13:32N 37°57' W 008°53'0 0.0
2016-Feb-06 12:32N 37°57' W 008°53'0 0.0
2016-Feb-06 11:32N 37°57' W 008°53'0 0.0
2016-Feb-06 10:32N 37°57' W 008°53'0 0.0
2016-Feb-06 09:32N 37°57' W 008°53'0 0.0
2016-Feb-06 08:32N 37°57' W 008°53'0 0.0
2016-Feb-06 07:32N 37°57' W 008°53'0 0.0
2016-Feb-06 06:32N 37°57' W 008°53'0 0.0
2016-Feb-06 05:32N 37°57' W 008°53'0 0.0
2016-Feb-06 04:32N 37°57' W 008°53'0 0.0
2016-Feb-06 03:32N 37°57' W 008°53'0 0.0
2016-Feb-06 02:32N 37°57' W 008°53'0 0.0
2016-Feb-06 01:32N 37°57' W 008°53'3 2.7
2016-Feb-06 00:31N 37°55' W 008°52'0 0.1
2016-Feb-05 23:31N 37°54' W 008°52'0 0.0
2016-Feb-05 22:31N 37°54' W 008°52'0 0.1
2016-Feb-05 21:31N 37°54' W 008°52'0 0.0
2016-Feb-05 20:31N 37°54' W 008°52'0 0.0
2016-Feb-05 19:31N 37°54' W 008°52'0 0.0
2016-Feb-05 18:31N 37°54' W 008°52'0 0.0
2016-Feb-05 17:31N 37°54' W 008°52'0 0.1
2016-Feb-05 16:31N 37°55' W 008°52'0 0.0
2016-Feb-05 15:31N 37°55' W 008°52'0 0.0
2016-Feb-05 14:31N 37°55' W 008°52'0 0.0
2016-Feb-05 13:31N 37°55' W 008°52'0 0.0
2016-Feb-05 12:31N 37°55' W 008°52'0 0.0
2016-Feb-05 11:31N 37°55' W 008°52'0 0.0
2016-Feb-05 10:31N 37°55' W 008°52'0 0.0
2016-Feb-05 09:31N 37°55' W 008°52'0 0.0
2016-Feb-05 08:31N 37°55' W 008°52'0 0.0
2016-Feb-05 07:31N 37°55' W 008°52'0 0.0
2016-Feb-05 06:31N 37°54' W 008°52'0 0.0
2016-Feb-05 05:31N 37°54' W 008°52'0 0.0
2016-Feb-05 04:31N 37°54' W 008°52'0 0.0
2016-Feb-05 03:31N 37°55' W 008°52'0 0.0
2016-Feb-05 02:31N 37°55' W 008°52'0 0.0
2016-Feb-05 01:31N 37°55' W 008°52'0 0.0
2016-Feb-05 00:31N 37°55' W 008°52'0 0.0
2016-Feb-04 23:31N 37°54' W 008°52'0 0.0
2016-Feb-04 22:31N 37°54' W 008°52'0 0.0
2016-Feb-04 21:31N 37°54' W 008°52'0 0.0
2016-Feb-04 20:31N 37°54' W 008°52'0 0.0
2016-Feb-04 19:31N 37°54' W 008°52'0 0.0
2016-Feb-04 18:31N 37°54' W 008°52'0 0.0
2016-Feb-04 17:31N 37°54' W 008°52'0 0.0
2016-Feb-04 16:31N 37°54' W 008°52'0 0.0
2016-Feb-04 15:31N 37°54' W 008°52'0 0.0
2016-Feb-04 14:31N 37°54' W 008°52'0 0.0
2016-Feb-04 13:31N 37°55' W 008°52'0 0.0
2016-Feb-04 12:31N 37°55' W 008°52'5 5.1
2016-Feb-04 11:33N 37°54' W 008°58'1110.9
2016-Feb-04 10:33N 37°53' W 009°12'1010.5
2016-Feb-04 09:33N 37°53' W 009°25'1211.4
2016-Feb-04 08:29N 37°52' W 009°41'9 9.9
2016-Feb-04 07:32N 37°54' W 009°52'1110.6
2016-Feb-04 06:29N 37°55' W 010°06'1010.7
2016-Feb-04 05:32N 37°55' W 010°19'1110.3
2016-Feb-04 04:29N 37°56' W 010°33'11 9.8
2016-Feb-04 03:21N 37°54' W 010°46'  
Track history (hours):
 
Tides and Currents Weather Stations Pressure Air Temp Water Temp Dewpoint Dewpoint Depression Visibility Wind Speed Wind Dir Waves Ship Positions

Epic Capri

Last reported at 2016-Feb-13 04:31 UTC. Time now 2016-Feb-13 21:18 UTC.
Position N 36°35' W 010°55'.

Length 99 m; draft 5.3 m.

Type: Tanker. MMSI: 256325000.

Date/timePositionNaut miles runAvg speedWind from/ knotsBaromVisibWave heightAir tempDewpointWater temp
2016-Feb-13 04:31N 36°35' W 010°55'9 9.6
2016-Feb-13 03:34N 36°40' W 010°46'12 9.9
2016-Feb-13 02:23N 36°48' W 010°35'8 9.4
2016-Feb-13 01:32N 36°53' W 010°28'9 8.6
2016-Feb-13 00:32N 36°58' W 010°19'9 8.8
2016-Feb-12 23:32N 37°04' W 010°11'9 9.2
2016-Feb-12 22:32N 37°10' W 010°02'10 9.7
2016-Feb-12 21:32N 37°16' W 009°52'9 8.9
2016-Feb-12 20:32N 37°22' W 009°44'10 9.5
2016-Feb-12 19:32N 37°28' W 009°35'10 9.6
2016-Feb-12 18:32N 37°34' W 009°25'12 8.9
2016-Feb-12 17:13N 37°41' W 009°14'6 9.4
2016-Feb-12 16:33N 37°45' W 009°08'10 9.6
2016-Feb-12 15:33N 37°51' W 008°58'7 7.1
2016-Feb-12 14:33N 37°57' W 008°53'0 0.1
2016-Feb-12 13:32N 37°57' W 008°53'0 0.0
2016-Feb-12 12:32N 37°57' W 008°53'0 0.0
2016-Feb-12 11:32N 37°57' W 008°53'0 0.0
2016-Feb-12 10:32N 37°57' W 008°53'0 0.0
2016-Feb-12 09:32N 37°57' W 008°53'0 0.0
2016-Feb-12 08:32N 37°57' W 008°53'0 0.0
2016-Feb-12 07:32N 37°57' W 008°53'0 0.0
2016-Feb-12 06:32N 37°57' W 008°53'0 0.0
2016-Feb-12 05:32N 37°57' W 008°53'0 0.0
2016-Feb-12 04:32N 37°57' W 008°53'0 0.0
2016-Feb-12 03:32N 37°57' W 008°53'0 0.0
2016-Feb-12 02:32N 37°57' W 008°53'0 0.0
2016-Feb-12 01:32N 37°57' W 008°53'0 0.0
2016-Feb-12 00:32N 37°57' W 008°53'0 0.0
2016-Feb-11 23:32N 37°57' W 008°53'0 0.0
2016-Feb-11 22:32N 37°57' W 008°53'0 0.0
2016-Feb-11 21:32N 37°57' W 008°53'0 0.0
2016-Feb-11 20:32N 37°57' W 008°53'0 0.0
2016-Feb-11 19:32N 37°57' W 008°53'0 0.0
2016-Feb-11 18:32N 37°57' W 008°53'0 0.0
2016-Feb-11 17:32N 37°57' W 008°53'0 0.0
2016-Feb-11 16:32N 37°57' W 008°53'0 0.0
2016-Feb-11 15:32N 37°57' W 008°53'0 0.0
2016-Feb-11 14:32N 37°57' W 008°53'0 0.0
2016-Feb-11 13:32N 37°57' W 008°53'0 0.0
2016-Feb-11 12:32N 37°57' W 008°53'0 0.0
2016-Feb-11 11:32N 37°57' W 008°53'2 2.3
2016-Feb-11 10:32N 37°55' W 008°52'0 0.0
2016-Feb-11 09:32N 37°55' W 008°52'0 0.0
2016-Feb-11 08:32N 37°55' W 008°52'0 0.0
2016-Feb-11 07:32N 37°55' W 008°52'0 0.0
2016-Feb-11 06:32N 37°55' W 008°52'0 0.0
2016-Feb-11 05:32N 37°55' W 008°52'0 0.0
2016-Feb-11 04:32N 37°55' W 008°52'0 0.0
2016-Feb-11 03:32N 37°55' W 008°52'0 0.0
2016-Feb-11 02:32N 37°55' W 008°52'0 0.0
2016-Feb-11 01:32N 37°55' W 008°52'0 0.0
2016-Feb-11 00:32N 37°55' W 008°52'0 0.0
2016-Feb-10 23:32N 37°55' W 008°52'0 0.0
2016-Feb-10 22:32N 37°55' W 008°52'0 0.0
2016-Feb-10 21:32N 37°55' W 008°52'0 0.0
2016-Feb-10 20:29N 37°55' W 008°52'0 0.0
2016-Feb-10 19:32N 37°55' W 008°52'1 1.3
2016-Feb-10 18:33N 37°55' W 008°54'1111.0
2016-Feb-10 17:32N 38°02' W 009°04'1211.7
2016-Feb-10 16:33N 38°08' W 009°17'1412.8
2016-Feb-10 15:29N 38°14' W 009°32'1212.0
2016-Feb-10 14:29N 38°19' W 009°46'1010.5
2016-Feb-10 13:33N 38°23' W 009°58'10 9.7
2016-Feb-10 12:33N 38°29' W 010°08'1110.7
2016-Feb-10 11:33N 38°39' W 010°11'1210.4
2016-Feb-10 10:21N 38°52' W 010°12'8 9.6
2016-Feb-10 09:32N 38°59' W 010°09'1010.1
2016-Feb-10 08:33N 39°09' W 010°06'9 8.9
2016-Feb-10 07:32N 39°17' W 010°00'9 9.1
2016-Feb-10 06:29N 39°25' W 009°55'9 9.0
2016-Feb-10 05:32N 39°33' W 009°50'9 9.4
2016-Feb-10 04:32N 39°41' W 009°44'12 9.8
2016-Feb-10 03:20N 39°51' W 009°37'8 9.6
2016-Feb-10 02:32N 39°58' W 009°32'9 9.0
2016-Feb-10 01:30N 40°06' W 009°26'9 9.4
2016-Feb-10 00:32N 40°15' W 009°21'10 9.6
2016-Feb-09 23:32N 40°23' W 009°15'9 9.2
2016-Feb-09 22:33N 40°31' W 009°09'12 9.3
2016-Feb-09 21:14N 40°42' W 009°02'5 7.4
2016-Feb-09 20:33N 40°46' W 008°59'9 8.8
2016-Feb-09 19:34N 40°54' W 008°54'8 8.1
2016-Feb-09 18:33N 41°01' W 008°49'8 7.6
2016-Feb-09 17:33N 41°08' W 008°43'3 3.4
2016-Feb-09 16:32N 41°11' W 008°43'0 0.0
2016-Feb-09 15:32N 41°11' W 008°43'0 0.0
2016-Feb-09 14:32N 41°11' W 008°43'0 0.0
2016-Feb-09 13:32N 41°11' W 008°43'0 0.0
2016-Feb-09 12:32N 41°11' W 008°43'0 0.0
2016-Feb-09 11:32N 41°11' W 008°43'0 0.0
2016-Feb-09 10:32N 41°11' W 008°43'0 0.0
2016-Feb-09 09:32N 41°11' W 008°43'0 0.0
2016-Feb-09 08:33N 41°11' W 008°43'0 0.0
2016-Feb-09 07:33N 41°11' W 008°43'0 0.0
2016-Feb-09 06:32N 41°11' W 008°43'0 0.0
2016-Feb-09 05:32N 41°11' W 008°43'0 0.0
2016-Feb-09 04:33N 41°11' W 008°43'0 0.0
2016-Feb-09 03:33N 41°11' W 008°43'0 0.0
2016-Feb-09 02:33N 41°11' W 008°43'0 0.0
2016-Feb-09 01:32N 41°11' W 008°43'0 0.0
2016-Feb-09 00:33N 41°11' W 008°43'0 0.0
2016-Feb-08 23:33N 41°11' W 008°43'0 0.0
2016-Feb-08 22:32N 41°11' W 008°43'0 0.0
2016-Feb-08 21:33N 41°11' W 008°43'0 0.0
2016-Feb-08 20:32N 41°11' W 008°43'0 0.0
2016-Feb-08 19:32N 41°11' W 008°43'0 0.0
2016-Feb-08 18:33N 41°11' W 008°43'0 0.0
2016-Feb-08 17:33N 41°11' W 008°43'0 0.0
2016-Feb-08 16:32N 41°11' W 008°43'0 0.0
2016-Feb-08 15:32N 41°11' W 008°43'0 0.0
2016-Feb-08 14:33N 41°11' W 008°43'0 0.0
2016-Feb-08 13:33N 41°11' W 008°43'0 0.0
2016-Feb-08 12:32N 41°11' W 008°43'0 0.0
2016-Feb-08 11:33N 41°11' W 008°43'0 0.0
2016-Feb-08 10:33N 41°11' W 008°43'0 0.4
2016-Feb-08 09:33N 41°11' W 008°42'3 2.7
2016-Feb-08 08:33N 41°10' W 008°46'1 1.3
2016-Feb-08 07:33N 41°09' W 008°48'5 4.8
2016-Feb-08 06:33N 41°05' W 008°48'1010.6
2016-Feb-08 05:34N 40°55' W 008°54'1010.4
2016-Feb-08 04:33N 40°46' W 009°00'1110.7
2016-Feb-08 03:29N 40°36' W 009°07'9 9.7
2016-Feb-08 02:32N 40°27' W 009°11'1110.7
2016-Feb-08 01:32N 40°17' W 009°17'1010.4
2016-Feb-08 00:32N 40°08' W 009°22'1110.6
2016-Feb-07 23:32N 39°58' W 009°29'1110.0
2016-Feb-07 22:29N 39°49' W 009°34'9 9.9
2016-Feb-07 21:33N 39°40' W 009°40'1010.3
2016-Feb-07 20:32N 39°31' W 009°45'11 9.9
2016-Feb-07 19:26N 39°21' W 009°51'8 8.9
2016-Feb-07 18:33N 39°14' W 009°56'8 8.5
2016-Feb-07 17:34N 39°05' W 009°57'8 8.2
2016-Feb-07 16:33N 38°57' W 009°57'7 7.0
2016-Feb-07 15:33N 38°50' W 009°57'5 5.5
2016-Feb-07 14:32N 38°45' W 009°56'6 4.7
2016-Feb-07 13:20N 38°39' W 009°54'4 5.1
2016-Feb-07 12:32N 38°35' W 009°52'5 4.8
2016-Feb-07 11:32N 38°31' W 009°50'5 5.4
2016-Feb-07 10:33N 38°27' W 009°46'5 5.0
2016-Feb-07 09:32N 38°22' W 009°43'5 4.8
2016-Feb-07 08:32N 38°18' W 009°40'5 3.8
2016-Feb-07 07:11N 38°14' W 009°36'2 3.5
2016-Feb-07 06:32N 38°13' W 009°33'4 3.5
2016-Feb-07 05:30N 38°12' W 009°29'3 3.5
2016-Feb-07 04:33N 38°11' W 009°25'4 3.6
2016-Feb-07 03:33N 38°10' W 009°20'3 3.3
2016-Feb-07 02:33N 38°09' W 009°16'3 3.3
2016-Feb-07 01:33N 38°07' W 009°13'4 3.9
2016-Feb-07 00:33N 38°05' W 009°08'6 6.2
2016-Feb-06 23:33N 38°01' W 009°02'7 6.7
2016-Feb-06 22:33N 37°57' W 008°56'2 2.1
2016-Feb-06 21:33N 37°57' W 008°53'0 0.0
2016-Feb-06 20:32N 37°57' W 008°53'0 0.0
2016-Feb-06 19:32N 37°57' W 008°53'0 0.0
2016-Feb-06 18:32N 37°57' W 008°53'0 0.0
2016-Feb-06 17:32N 37°57' W 008°53'0 0.0
2016-Feb-06 16:32N 37°57' W 008°53'0 0.0
2016-Feb-06 15:32N 37°57' W 008°53'0 0.0
2016-Feb-06 14:32N 37°57' W 008°53'0 0.0
2016-Feb-06 13:32N 37°57' W 008°53'0 0.0
2016-Feb-06 12:32N 37°57' W 008°53'0 0.0
2016-Feb-06 11:32N 37°57' W 008°53'0 0.0
2016-Feb-06 10:32N 37°57' W 008°53'0 0.0
2016-Feb-06 09:32N 37°57' W 008°53'0 0.0
2016-Feb-06 08:32N 37°57' W 008°53'0 0.0
2016-Feb-06 07:32N 37°57' W 008°53'0 0.0
2016-Feb-06 06:32N 37°57' W 008°53'0 0.0
2016-Feb-06 05:32N 37°57' W 008°53'0 0.0
2016-Feb-06 04:32N 37°57' W 008°53'0 0.0
2016-Feb-06 03:32N 37°57' W 008°53'0 0.0
2016-Feb-06 02:32N 37°57' W 008°53'0 0.0
2016-Feb-06 01:32N 37°57' W 008°53'3 2.7
2016-Feb-06 00:31N 37°55' W 008°52'0 0.1
2016-Feb-05 23:31N 37°54' W 008°52'0 0.0
2016-Feb-05 22:31N 37°54' W 008°52'0 0.1
2016-Feb-05 21:31N 37°54' W 008°52'0 0.0
2016-Feb-05 20:31N 37°54' W 008°52'0 0.0
2016-Feb-05 19:31N 37°54' W 008°52'0 0.0
2016-Feb-05 18:31N 37°54' W 008°52'0 0.0
2016-Feb-05 17:31N 37°54' W 008°52'0 0.1
2016-Feb-05 16:31N 37°55' W 008°52'0 0.0
2016-Feb-05 15:31N 37°55' W 008°52'0 0.0
2016-Feb-05 14:31N 37°55' W 008°52'0 0.0
2016-Feb-05 13:31N 37°55' W 008°52'0 0.0
2016-Feb-05 12:31N 37°55' W 008°52'0 0.0
2016-Feb-05 11:31N 37°55' W 008°52'0 0.0
2016-Feb-05 10:31N 37°55' W 008°52'0 0.0
2016-Feb-05 09:31N 37°55' W 008°52'0 0.0
2016-Feb-05 08:31N 37°55' W 008°52'0 0.0
2016-Feb-05 07:31N 37°55' W 008°52'0 0.0
2016-Feb-05 06:31N 37°54' W 008°52'0 0.0
2016-Feb-05 05:31N 37°54' W 008°52'0 0.0
2016-Feb-05 04:31N 37°54' W 008°52'0 0.0
2016-Feb-05 03:31N 37°55' W 008°52'0 0.0
2016-Feb-05 02:31N 37°55' W 008°52'0 0.0
2016-Feb-05 01:31N 37°55' W 008°52'0 0.0
2016-Feb-05 00:31N 37°55' W 008°52'0 0.0
2016-Feb-04 23:31N 37°54' W 008°52'0 0.0
2016-Feb-04 22:31N 37°54' W 008°52'0 0.0
2016-Feb-04 21:31N 37°54' W 008°52'0 0.0
2016-Feb-04 20:31N 37°54' W 008°52'0 0.0
2016-Feb-04 19:31N 37°54' W 008°52'0 0.0
2016-Feb-04 18:31N 37°54' W 008°52'0 0.0
2016-Feb-04 17:31N 37°54' W 008°52'0 0.0
2016-Feb-04 16:31N 37°54' W 008°52'0 0.0
2016-Feb-04 15:31N 37°54' W 008°52'0 0.0
2016-Feb-04 14:31N 37°54' W 008°52'0 0.0
2016-Feb-04 13:31N 37°55' W 008°52'0 0.0
2016-Feb-04 12:31N 37°55' W 008°52'5 5.1
2016-Feb-04 11:33N 37°54' W 008°58'1110.9
2016-Feb-04 10:33N 37°53' W 009°12'1010.5
2016-Feb-04 09:33N 37°53' W 009°25'1211.4
2016-Feb-04 08:29N 37°52' W 009°41'9 9.9
2016-Feb-04 07:32N 37°54' W 009°52'1110.6
2016-Feb-04 06:29N 37°55' W 010°06'1010.7
2016-Feb-04 05:32N 37°55' W 010°19'1110.3
2016-Feb-04 04:29N 37°56' W 010°33'11 9.8
2016-Feb-04 03:21N 37°54' W 010°46'  

Dump ship's entire track history